createdAt,value
2023-01-12T00:00:37.406Z,100.00
2023-01-12T00:03:20.328Z,100.00
2023-01-12T00:05:50.491Z,100.00
2023-01-12T00:08:19.547Z,100.00
2023-01-12T00:10:48.323Z,100.00
2023-01-12T00:13:17.422Z,100.00
2023-01-12T00:16:00.101Z,100.00
2023-01-12T00:18:29.191Z,100.00
2023-01-12T00:20:59.385Z,100.00
2023-01-12T00:23:30.383Z,100.00
2023-01-12T00:25:59.219Z,100.00
2023-01-12T00:28:28.335Z,100.00
2023-01-12T00:31:02.160Z,100.00
2023-01-12T00:33:31.319Z,100.00
2023-01-12T00:36:05.694Z,100.00
2023-01-12T00:38:37.185Z,100.00
2023-01-12T00:41:07.578Z,100.00
2023-01-12T00:43:54.493Z,100.00
2023-01-12T00:46:31.661Z,100.00
2023-01-12T00:49:00.816Z,100.00
2023-01-12T00:51:31.086Z,100.00
2023-01-12T00:54:04.430Z,100.00
2023-01-12T00:56:33.459Z,100.00
2023-01-12T00:59:03.047Z,100.00
2023-01-12T01:01:34.439Z,100.00
2023-01-12T01:04:03.922Z,100.00
2023-01-12T01:06:34.147Z,100.00
2023-01-12T01:09:03.218Z,100.00
2023-01-12T01:11:32.284Z,100.00
2023-01-12T01:14:01.869Z,100.00
2023-01-12T01:16:31.290Z,100.00
2023-01-12T01:19:03.216Z,100.00
2023-01-12T01:21:34.374Z,100.00
2023-01-12T01:24:03.524Z,100.00
2023-01-12T01:26:33.727Z,100.00
2023-01-12T01:29:02.842Z,100.00
2023-01-12T01:31:31.864Z,100.00
2023-01-12T01:34:01.016Z,100.00
2023-01-12T01:36:29.858Z,100.00
2023-01-12T01:39:00.738Z,100.00
2023-01-12T01:41:33.472Z,100.00
2023-01-12T01:44:06.130Z,100.00
2023-01-12T01:46:45.102Z,100.00
2023-01-12T01:49:31.704Z,100.00
2023-01-12T01:52:07.235Z,100.00
2023-01-12T01:54:43.995Z,100.00
2023-01-12T01:57:15.705Z,100.00
2023-01-12T01:59:52.056Z,100.00
2023-01-12T02:02:21.158Z,100.00
2023-01-12T02:04:50.368Z,100.00
2023-01-12T02:07:19.287Z,100.00
2023-01-12T02:09:49.747Z,100.00
2023-01-12T02:12:35.771Z,100.00
2023-01-12T02:15:23.108Z,100.00
2023-01-12T02:18:14.005Z,100.00
2023-01-12T02:21:01.871Z,100.00
2023-01-12T02:24:28.035Z,100.00
2023-01-12T02:27:26.521Z,100.00
2023-01-12T02:30:51.361Z,100.00
2023-01-12T02:33:43.497Z,100.00
2023-01-12T02:36:25.588Z,100.00
2023-01-12T02:39:05.547Z,100.00
2023-01-12T02:41:59.731Z,100.00
2023-01-12T02:44:40.825Z,100.00
2023-01-12T02:47:19.623Z,100.00
2023-01-12T02:49:57.563Z,100.00
2023-01-12T02:52:31.540Z,100.00
2023-01-12T02:55:04.961Z,100.00
2023-01-12T02:57:38.468Z,100.00
2023-01-12T03:00:10.556Z,100.00
2023-01-12T03:02:40.179Z,100.00
2023-01-12T03:05:11.317Z,100.00
2023-01-12T03:07:49.945Z,100.00
2023-01-12T03:10:42.712Z,100.00
2023-01-12T03:13:16.998Z,100.00
2023-01-12T03:15:51.151Z,100.00
2023-01-12T03:18:30.124Z,100.00
2023-01-12T03:21:07.973Z,100.00
2023-01-12T03:23:45.685Z,100.00
2023-01-12T03:26:24.131Z,100.00
2023-01-12T03:29:01.801Z,100.00
2023-01-12T03:31:31.857Z,100.00
2023-01-12T03:34:01.832Z,100.00
2023-01-12T03:36:46.600Z,100.00
2023-01-12T03:39:26.488Z,100.00
2023-01-12T03:42:03.199Z,100.00
2023-01-12T03:44:42.251Z,100.00
2023-01-12T03:47:29.274Z,100.00
2023-01-12T03:50:04.974Z,100.00
2023-01-12T03:52:39.630Z,100.00
2023-01-12T03:55:13.739Z,100.00
2023-01-12T03:57:45.647Z,100.00
2023-01-12T04:00:18.044Z,100.00
2023-01-12T04:02:48.049Z,100.00
2023-01-12T04:05:17.549Z,100.00
2023-01-12T04:07:47.983Z,100.00
2023-01-12T04:10:17.383Z,100.00
2023-01-12T04:12:46.467Z,100.00
2023-01-12T04:15:15.428Z,100.00
2023-01-12T04:17:44.482Z,100.00
2023-01-12T04:20:14.623Z,100.00
2023-01-12T04:22:43.639Z,100.00
2023-01-12T04:25:16.727Z,100.00
2023-01-12T04:27:49.658Z,100.00
2023-01-12T04:30:23.541Z,100.00
2023-01-12T04:32:53.201Z,100.00
2023-01-12T04:35:22.046Z,100.00
2023-01-12T04:37:51.887Z,100.00
2023-01-12T04:40:22.345Z,100.00
2023-01-12T04:43:06.998Z,100.00
2023-01-12T04:45:39.887Z,100.00
2023-01-12T04:48:12.779Z,100.00
2023-01-12T04:50:42.754Z,100.00
2023-01-12T04:53:13.860Z,100.00
2023-01-12T04:55:45.192Z,100.00
2023-01-12T04:58:14.366Z,100.00
2023-01-12T05:00:43.559Z,100.00
2023-01-12T05:03:14.132Z,100.00
2023-01-12T05:05:43.334Z,100.00
2023-01-12T05:08:29.910Z,100.00
2023-01-12T05:11:02.373Z,100.00
2023-01-12T05:13:33.284Z,100.00
2023-01-12T05:16:10.962Z,100.00
2023-01-12T05:18:40.261Z,100.00
2023-01-12T05:21:09.114Z,100.00
2023-01-12T05:23:38.296Z,100.00
2023-01-12T05:26:08.970Z,100.00
2023-01-12T05:28:38.094Z,100.00
2023-01-12T05:31:10.167Z,100.00
2023-01-12T05:33:41.632Z,100.00
2023-01-12T05:36:13.999Z,100.00
2023-01-12T05:38:43.772Z,100.00
2023-01-12T05:41:16.810Z,100.00
2023-01-12T05:43:50.812Z,100.00
2023-01-12T05:46:23.057Z,100.00
2023-01-12T05:48:53.964Z,100.00
2023-01-12T05:51:23.347Z,100.00
2023-01-12T05:53:52.598Z,100.00
2023-01-12T05:56:26.172Z,100.00
2023-01-12T05:58:58.455Z,100.00
2023-01-12T06:01:29.372Z,100.00
2023-01-12T06:04:01.715Z,100.00
2023-01-12T06:06:32.921Z,100.00
2023-01-12T06:09:03.854Z,100.00
2023-01-12T06:11:51.434Z,100.00
2023-01-12T06:14:20.516Z,100.00
2023-01-12T06:16:49.330Z,100.00
2023-01-12T06:19:18.441Z,100.00
2023-01-12T06:21:47.263Z,100.00
2023-01-12T06:24:16.419Z,100.00
2023-01-12T06:26:46.705Z,100.00
2023-01-12T06:29:15.829Z,100.00
2023-01-12T06:31:44.867Z,100.00
2023-01-12T06:34:14.224Z,100.00
2023-01-12T06:36:43.370Z,100.00
2023-01-12T06:39:14.128Z,100.00
2023-01-12T06:42:00.143Z,100.00
2023-01-12T06:44:30.619Z,100.00
2023-01-12T06:46:59.457Z,100.00
2023-01-12T06:49:28.550Z,100.00
2023-01-12T06:51:57.361Z,100.00
2023-01-12T06:54:26.472Z,100.00
2023-01-12T06:56:55.793Z,100.00
2023-01-12T06:59:24.982Z,100.00
2023-01-12T07:01:55.293Z,100.00
2023-01-12T07:04:24.589Z,100.00
2023-01-12T07:06:56.189Z,100.00
2023-01-12T07:09:25.393Z,100.00
2023-01-12T07:11:54.246Z,100.00
2023-01-12T07:14:23.324Z,100.00
2023-01-12T07:16:52.169Z,100.00
2023-01-12T07:19:23.022Z,100.00
2023-01-12T07:21:52.050Z,100.00
2023-01-12T07:24:21.162Z,100.00
2023-01-12T07:26:50.850Z,100.00
2023-01-12T07:29:19.936Z,100.00
2023-01-12T07:31:50.143Z,100.00
2023-01-12T07:34:19.517Z,100.00
2023-01-12T07:36:51.485Z,100.00
2023-01-12T07:39:20.824Z,100.00
2023-01-12T07:42:07.214Z,100.00
2023-01-12T07:44:40.305Z,100.00
2023-01-12T07:47:09.195Z,100.00
2023-01-12T07:49:38.413Z,100.00
2023-01-12T07:52:08.862Z,100.00
2023-01-12T07:54:37.933Z,100.00
2023-01-12T07:57:10.872Z,100.00
2023-01-12T07:59:39.924Z,100.00
2023-01-12T08:02:16.453Z,100.00
2023-01-12T08:04:45.862Z,100.00
2023-01-12T08:07:16.173Z,100.00
2023-01-12T08:09:45.356Z,100.00
2023-01-12T08:12:14.348Z,100.00
2023-01-12T08:14:43.793Z,100.00
2023-01-12T08:17:20.107Z,100.00
2023-01-12T08:19:59.695Z,100.00
2023-01-12T08:22:36.625Z,100.00
2023-01-12T08:25:13.466Z,100.00
2023-01-12T08:27:51.047Z,100.00
2023-01-12T08:30:25.891Z,100.00
2023-01-12T08:32:58.675Z,100.00
2023-01-12T08:35:33.492Z,100.00
2023-01-12T08:38:03.790Z,100.00
2023-01-12T08:40:46.825Z,100.00
2023-01-12T08:43:35.685Z,100.00
2023-01-12T08:46:08.037Z,100.00
2023-01-12T08:48:37.543Z,100.00
2023-01-12T08:51:09.288Z,100.00
2023-01-12T08:53:39.461Z,100.00
2023-01-12T08:56:09.374Z,100.00
2023-01-12T08:58:38.662Z,100.00
2023-01-12T09:01:09.969Z,100.00
2023-01-12T09:03:39.968Z,100.00
2023-01-12T09:06:14.836Z,100.00
2023-01-12T09:08:46.113Z,100.00
2023-01-12T09:11:16.956Z,100.00
2023-01-12T09:13:46.044Z,100.00
2023-01-12T09:16:19.049Z,100.00
2023-01-12T09:18:48.225Z,100.00
2023-01-12T09:21:20.303Z,100.00
2023-01-12T09:23:51.248Z,100.00
2023-01-12T09:26:23.019Z,100.00
2023-01-12T09:28:52.569Z,100.00
2023-01-12T09:31:24.290Z,100.00
2023-01-12T09:33:53.633Z,100.00
2023-01-12T09:36:25.994Z,100.00
2023-01-12T09:38:57.314Z,100.00
2023-01-12T09:41:48.166Z,100.00
2023-01-12T09:44:47.098Z,100.00
2023-01-12T09:47:25.201Z,100.00
2023-01-12T09:50:10.493Z,100.00
2023-01-12T09:52:44.811Z,100.00
2023-01-12T09:55:19.548Z,100.00
2023-01-12T09:58:18.658Z,100.00
2023-01-12T10:00:52.346Z,100.00
2023-01-12T10:03:31.727Z,100.00
2023-01-12T10:06:01.665Z,100.00
2023-01-12T10:08:38.264Z,100.00
2023-01-12T10:11:18.387Z,100.00
2023-01-12T10:14:25.578Z,100.00
2023-01-12T10:17:38.571Z,100.00
2023-01-12T10:20:22.297Z,100.00
2023-01-12T10:22:54.804Z,100.00
2023-01-12T10:25:38.984Z,100.00
2023-01-12T10:28:17.912Z,100.00
2023-01-12T10:30:47.603Z,100.00
2023-01-12T10:33:20.259Z,100.00
2023-01-12T10:35:54.125Z,100.00
2023-01-12T10:38:28.857Z,100.00
2023-01-12T10:41:16.763Z,100.00
2023-01-12T10:44:06.281Z,100.00
2023-01-12T10:46:36.214Z,100.00
2023-01-12T10:49:20.937Z,100.00
2023-01-12T10:51:55.904Z,100.00
2023-01-12T10:54:28.557Z,100.00
2023-01-12T10:57:04.249Z,100.00
2023-01-12T10:59:39.013Z,100.00
2023-01-12T11:02:17.359Z,100.00
2023-01-12T11:04:50.315Z,100.00
2023-01-12T11:07:25.671Z,100.00
2023-01-12T11:09:55.310Z,100.00
2023-01-12T11:12:31.117Z,100.00
2023-01-12T11:15:05.448Z,100.00
2023-01-12T11:18:01.197Z,100.00
2023-01-12T11:20:38.103Z,100.00
2023-01-12T11:23:15.763Z,100.00
2023-01-12T11:25:50.622Z,100.00
2023-01-12T11:28:29.397Z,100.00
2023-01-12T11:31:06.352Z,100.00
2023-01-12T11:33:43.702Z,100.00
2023-01-12T11:36:20.982Z,100.00
2023-01-12T11:38:55.472Z,100.00
2023-01-12T11:41:34.396Z,100.00
2023-01-12T11:44:15.374Z,100.00
2023-01-12T11:46:50.585Z,100.00
2023-01-12T11:49:30.302Z,100.00
2023-01-12T11:52:02.383Z,100.00
2023-01-12T11:54:33.241Z,100.00
2023-01-12T11:57:34.543Z,100.00
2023-01-12T12:00:24.781Z,100.00
2023-01-12T12:03:10.482Z,100.00
2023-01-12T12:05:50.579Z,99.39
2023-01-12T12:08:41.134Z,98.93
2023-01-12T12:11:23.423Z,97.51
2023-01-12T12:14:08.318Z,97.42
2023-01-12T12:16:49.995Z,96.96
2023-01-12T12:19:43.893Z,96.91
2023-01-12T12:22:34.912Z,97.64
2023-01-12T12:25:18.599Z,95.48
2023-01-12T12:28:11.087Z,95.86
2023-01-12T12:31:06.359Z,95.54
2023-01-12T12:33:58.141Z,95.25
2023-01-12T12:36:37.118Z,95.60
2023-01-12T12:39:37.095Z,95.05
2023-01-12T12:42:46.432Z,95.07
2023-01-12T12:45:28.816Z,95.37
2023-01-12T12:48:07.175Z,94.99
2023-01-12T12:50:44.370Z,94.32
2023-01-12T12:53:29.065Z,95.18
2023-01-12T12:56:03.719Z,96.04
2023-01-12T12:58:45.973Z,96.11
2023-01-12T13:01:43.436Z,96.66
2023-01-12T13:04:14.591Z,97.10
2023-01-12T13:06:50.597Z,96.07
2023-01-12T13:09:42.177Z,96.64
2023-01-12T13:12:33.145Z,96.70
2023-01-12T13:15:26.415Z,97.04
2023-01-12T13:17:57.313Z,96.77
2023-01-12T13:21:02.075Z,96.98
2023-01-12T13:23:50.647Z,96.94
2023-01-12T13:26:52.273Z,96.63
2023-01-12T13:29:40.683Z,96.01
2023-01-12T13:32:51.992Z,95.64
2023-01-12T13:35:44.582Z,95.11
2023-01-12T13:38:24.523Z,95.10
2023-01-12T13:40:55.988Z,93.71
2023-01-12T13:43:33.142Z,94.61
2023-01-12T13:46:06.712Z,93.42
2023-01-12T13:48:37.424Z,93.82
2023-01-12T13:51:18.441Z,93.56
2023-01-12T13:54:00.192Z,94.34
2023-01-12T13:56:29.595Z,94.42
2023-01-12T13:59:03.876Z,94.17
2023-01-12T14:01:37.304Z,94.45
2023-01-12T14:04:31.389Z,93.77
2023-01-12T14:07:13.439Z,93.99
2023-01-12T14:09:56.446Z,93.04
2023-01-12T14:13:07.284Z,93.02
2023-01-12T14:15:57.613Z,92.98
2023-01-12T14:18:29.431Z,93.47
2023-01-12T14:21:00.523Z,93.39
2023-01-12T14:23:33.788Z,93.69
2023-01-12T14:26:08.136Z,93.70
2023-01-12T14:28:38.634Z,94.15
2023-01-12T14:31:18.839Z,94.48
2023-01-12T14:33:53.064Z,94.68
2023-01-12T14:36:28.612Z,94.92
2023-01-12T14:39:00.691Z,94.48
2023-01-12T14:41:49.027Z,93.99
2023-01-12T14:44:39.483Z,94.18
2023-01-12T14:47:10.865Z,93.36
2023-01-12T14:49:40.245Z,93.29
2023-01-12T14:52:27.123Z,93.68
2023-01-12T14:54:56.310Z,94.41
2023-01-12T14:57:34.593Z,94.35
2023-01-12T15:00:06.090Z,95.08
2023-01-12T15:02:40.152Z,95.17
2023-01-12T15:05:23.040Z,94.88
2023-01-12T15:07:58.760Z,95.43
2023-01-12T15:10:33.593Z,95.56
2023-01-12T15:13:26.459Z,95.54
2023-01-12T15:16:15.315Z,96.42
2023-01-12T15:19:03.699Z,96.33
2023-01-12T15:21:51.876Z,96.66
2023-01-12T15:24:43.341Z,97.09
2023-01-12T15:27:15.673Z,97.53
2023-01-12T15:29:44.666Z,97.37
2023-01-12T15:32:21.158Z,97.75
2023-01-12T15:34:51.480Z,97.98
2023-01-12T15:37:21.783Z,98.06
2023-01-12T15:39:50.675Z,97.83
2023-01-12T15:42:22.776Z,97.97
2023-01-12T15:44:53.947Z,98.73
2023-01-12T15:47:23.615Z,98.89
2023-01-12T15:49:54.380Z,98.40
2023-01-12T15:52:26.558Z,98.32
2023-01-12T15:54:55.371Z,98.28
2023-01-12T15:57:24.428Z,98.03
2023-01-12T15:59:53.520Z,98.41
2023-01-12T16:02:34.437Z,98.39
2023-01-12T16:05:06.773Z,98.89
2023-01-12T16:07:35.960Z,98.98
2023-01-12T16:10:06.670Z,98.83
2023-01-12T16:12:37.061Z,99.88
2023-01-12T16:15:07.410Z,99.45
2023-01-12T16:17:36.804Z,99.90
2023-01-12T16:20:09.221Z,100.00
2023-01-12T16:22:38.319Z,100.00
2023-01-12T16:25:08.759Z,100.00
2023-01-12T16:27:38.798Z,100.00
2023-01-12T16:30:13.163Z,100.00
2023-01-12T16:32:46.469Z,100.00
2023-01-12T16:35:17.421Z,100.00
2023-01-12T16:37:46.568Z,100.00
2023-01-12T16:40:15.737Z,100.00
2023-01-12T16:42:44.839Z,100.00
2023-01-12T16:45:13.872Z,100.00
2023-01-12T16:47:42.940Z,100.00
2023-01-12T16:50:11.829Z,100.00
2023-01-12T16:52:42.304Z,100.00
2023-01-12T16:55:11.238Z,100.00
2023-01-12T16:57:41.129Z,100.00
2023-01-12T17:00:12.399Z,100.00
2023-01-12T17:02:41.880Z,100.00
2023-01-12T17:05:12.026Z,100.00
2023-01-12T17:07:43.184Z,100.00
2023-01-12T17:10:12.945Z,100.00
2023-01-12T17:12:58.059Z,100.00
2023-01-12T17:15:31.557Z,100.00
2023-01-12T17:18:01.231Z,100.00
2023-01-12T17:20:30.415Z,100.00
2023-01-12T17:23:01.888Z,100.00
2023-01-12T17:25:30.781Z,100.00
2023-01-12T17:27:59.970Z,100.00
2023-01-12T17:30:28.904Z,100.00
2023-01-12T17:32:58.056Z,100.00
2023-01-12T17:35:27.402Z,100.00
2023-01-12T17:37:56.589Z,100.00
2023-01-12T17:40:27.403Z,100.00
2023-01-12T17:43:07.746Z,100.00
2023-01-12T17:45:42.609Z,100.00
2023-01-12T17:48:13.239Z,100.00
2023-01-12T17:50:42.291Z,100.00
2023-01-12T17:53:11.714Z,100.00
2023-01-12T17:55:48.557Z,100.00
2023-01-12T17:58:18.675Z,100.00
2023-01-12T18:00:47.537Z,100.00
2023-01-12T18:03:16.721Z,100.00
2023-01-12T18:05:50.018Z,100.00
2023-01-12T18:08:22.668Z,100.00
2023-01-12T18:10:52.925Z,100.00
2023-01-12T18:13:22.057Z,100.00
2023-01-12T18:15:51.096Z,100.00
2023-01-12T18:18:20.259Z,100.00
2023-01-12T18:20:52.321Z,100.00
2023-01-12T18:23:21.810Z,100.00
2023-01-12T18:25:52.082Z,100.00
2023-01-12T18:28:21.195Z,100.00
2023-01-12T18:30:50.221Z,100.00
2023-01-12T18:33:19.344Z,100.00
2023-01-12T18:35:48.190Z,100.00
2023-01-12T18:38:17.285Z,100.00
2023-01-12T18:41:06.692Z,100.00
2023-01-12T18:43:36.230Z,100.00
2023-01-12T18:46:13.248Z,100.00
2023-01-12T18:48:45.730Z,99.17
2023-01-12T18:51:34.110Z,99.04
2023-01-12T18:54:03.211Z,98.70
2023-01-12T18:56:32.035Z,97.85
2023-01-12T18:59:04.283Z,97.70
2023-01-12T19:01:33.162Z,97.33
2023-01-12T19:04:02.757Z,96.78
2023-01-12T19:06:43.068Z,97.37
2023-01-12T19:09:31.196Z,96.91
2023-01-12T19:12:01.558Z,97.52
2023-01-12T19:14:49.655Z,97.50
2023-01-12T19:17:27.947Z,97.40
2023-01-12T19:19:58.829Z,97.71
2023-01-12T19:22:46.620Z,97.15
2023-01-12T19:25:35.574Z,97.20
2023-01-12T19:28:25.878Z,95.93
2023-01-12T19:31:01.871Z,95.90
2023-01-12T19:33:31.402Z,95.51
2023-01-12T19:36:06.380Z,96.37
2023-01-12T19:38:36.026Z,96.97
2023-01-12T19:41:12.698Z,96.46
2023-01-12T19:43:45.233Z,96.54
2023-01-12T19:46:15.956Z,95.96
2023-01-12T19:48:45.573Z,96.07
2023-01-12T19:51:14.749Z,95.54
2023-01-12T19:53:43.547Z,94.91
2023-01-12T19:56:14.575Z,94.42
2023-01-12T19:58:45.032Z,94.66
2023-01-12T20:01:23.189Z,94.51
2023-01-12T20:03:52.623Z,94.28
2023-01-12T20:06:21.781Z,93.78
2023-01-12T20:08:50.652Z,93.83
2023-01-12T20:11:19.933Z,93.39
2023-01-12T20:13:48.739Z,93.32
2023-01-12T20:16:17.975Z,92.60
2023-01-12T20:18:48.718Z,92.48
2023-01-12T20:21:17.816Z,92.21
2023-01-12T20:23:46.609Z,92.47
2023-01-12T20:26:15.914Z,91.91
2023-01-12T20:28:44.986Z,91.83
2023-01-12T20:31:17.226Z,91.71
2023-01-12T20:33:47.726Z,92.04
2023-01-12T20:36:18.678Z,91.71
2023-01-12T20:38:47.980Z,92.18
2023-01-12T20:41:17.083Z,91.45
2023-01-12T20:43:46.157Z,91.16
2023-01-12T20:46:15.948Z,91.35
2023-01-12T20:48:47.116Z,91.63
2023-01-12T20:51:18.148Z,90.83
2023-01-12T20:53:47.064Z,90.63
2023-01-12T20:56:16.201Z,89.85
2023-01-12T20:58:45.056Z,89.98
2023-01-12T21:01:16.688Z,90.18
2023-01-12T21:03:47.303Z,90.36
2023-01-12T21:06:18.706Z,90.40
2023-01-12T21:08:48.994Z,89.83
2023-01-12T21:11:21.463Z,90.03
2023-01-12T21:13:50.362Z,89.74
2023-01-12T21:16:22.667Z,89.21
2023-01-12T21:18:53.619Z,89.66
2023-01-12T21:21:22.841Z,88.97
2023-01-12T21:23:51.712Z,88.65
2023-01-12T21:26:21.082Z,88.33
2023-01-12T21:28:49.979Z,88.77
2023-01-12T21:31:19.117Z,88.83
2023-01-12T21:33:48.011Z,88.54
2023-01-12T21:36:19.788Z,87.86
2023-01-12T21:38:51.984Z,88.26
2023-01-12T21:41:22.507Z,88.00
2023-01-12T21:43:53.200Z,88.73
2023-01-12T21:46:22.866Z,88.79
2023-01-12T21:48:51.746Z,87.21
2023-01-12T21:51:22.213Z,87.13
2023-01-12T21:53:51.685Z,87.52
2023-01-12T21:56:20.828Z,87.34
2023-01-12T21:58:49.742Z,86.12
2023-01-12T22:01:19.459Z,86.80
2023-01-12T22:03:48.374Z,86.22
2023-01-12T22:06:17.522Z,87.13
2023-01-12T22:08:47.854Z,86.67
2023-01-12T22:11:18.376Z,86.35
2023-01-12T22:13:47.254Z,86.24
2023-01-12T22:16:17.948Z,86.03
2023-01-12T22:18:50.199Z,86.12
2023-01-12T22:21:21.897Z,86.29
2023-01-12T22:23:52.065Z,86.05
2023-01-12T22:26:21.809Z,86.55
2023-01-12T22:28:50.676Z,86.82
2023-01-12T22:31:22.958Z,86.64
2023-01-12T22:33:58.660Z,86.74
2023-01-12T22:36:27.842Z,86.89
2023-01-12T22:38:58.077Z,87.10
2023-01-12T22:41:27.738Z,87.26
2023-01-12T22:43:56.887Z,87.30
2023-01-12T22:46:28.338Z,87.00
2023-01-12T22:48:59.365Z,87.05
2023-01-12T22:51:31.357Z,87.19
2023-01-12T22:54:01.587Z,87.08
2023-01-12T22:56:30.863Z,87.02
2023-01-12T22:58:59.671Z,87.05
2023-01-12T23:01:28.965Z,86.92
2023-01-12T23:03:59.174Z,86.94
2023-01-12T23:06:29.068Z,86.89
2023-01-12T23:08:57.914Z,86.86
2023-01-12T23:11:28.429Z,86.82
2023-01-12T23:13:57.242Z,87.36
2023-01-12T23:16:28.635Z,87.19
2023-01-12T23:18:57.601Z,87.14
2023-01-12T23:21:29.105Z,87.07
2023-01-12T23:24:01.377Z,87.29
2023-01-12T23:26:33.989Z,87.54
2023-01-12T23:29:03.590Z,87.18
2023-01-12T23:31:35.093Z,87.13
2023-01-12T23:34:04.079Z,86.98
2023-01-12T23:36:33.335Z,85.96
2023-01-12T23:39:05.695Z,86.00
2023-01-12T23:41:38.558Z,86.61
2023-01-12T23:44:10.779Z,86.61
2023-01-12T23:46:43.178Z,86.49
2023-01-12T23:49:12.750Z,86.89
2023-01-12T23:51:41.633Z,85.86
2023-01-12T23:54:18.452Z,85.74
2023-01-12T23:56:53.429Z,85.91
2023-01-12T23:59:22.576Z,85.39
